createdAt,value
2018-10-21T00:00:53.729Z,15.02
2018-10-21T00:01:25.422Z,15.02
2018-10-21T00:01:56.530Z,15.00
2018-10-21T00:02:27.707Z,14.96
2018-10-21T00:02:58.762Z,14.96
2018-10-21T00:03:30.755Z,14.96
2018-10-21T00:04:01.928Z,14.93
2018-10-21T00:04:36.938Z,14.93
2018-10-21T00:05:08.059Z,14.92
2018-10-21T00:05:39.173Z,14.92
2018-10-21T00:06:10.297Z,14.92
2018-10-21T00:06:41.402Z,14.91
2018-10-21T00:07:12.844Z,14.91
2018-10-21T00:07:43.966Z,14.92
2018-10-21T00:08:15.080Z,14.89
2018-10-21T00:08:46.177Z,14.90
2018-10-21T00:09:17.361Z,14.89
2018-10-21T00:09:48.482Z,14.89
2018-10-21T00:10:19.622Z,14.91
2018-10-21T00:10:50.738Z,14.92
2018-10-21T00:11:22.143Z,14.93
2018-10-21T00:11:53.330Z,14.95
2018-10-21T00:12:24.431Z,14.95
2018-10-21T00:12:55.526Z,14.95
2018-10-21T00:13:26.641Z,14.96
2018-10-21T00:13:57.743Z,14.97
2018-10-21T00:14:28.882Z,14.95
2018-10-21T00:15:00.012Z,14.94
2018-10-21T00:15:31.161Z,14.94
2018-10-21T00:16:02.267Z,14.93
2018-10-21T00:16:33.455Z,14.92
2018-10-21T00:17:04.602Z,14.90
2018-10-21T00:17:35.822Z,14.89
2018-10-21T00:18:08.335Z,14.87
2018-10-21T00:18:39.463Z,14.84
2018-10-21T00:19:10.580Z,14.85
2018-10-21T00:19:41.682Z,14.83
2018-10-21T00:20:12.825Z,14.82
2018-10-21T00:20:43.946Z,14.79
2018-10-21T00:21:15.289Z,14.77
2018-10-21T00:21:46.331Z,14.77
2018-10-21T00:22:17.439Z,14.76
2018-10-21T00:22:49.974Z,14.75
2018-10-21T00:23:21.098Z,14.74
2018-10-21T00:23:52.214Z,14.73
2018-10-21T00:24:23.341Z,14.73
2018-10-21T00:24:55.394Z,14.73
2018-10-21T00:25:26.554Z,14.72
2018-10-21T00:25:57.658Z,14.73
2018-10-21T00:26:28.777Z,14.73
2018-10-21T00:26:59.902Z,14.74
2018-10-21T00:27:31.054Z,14.75
2018-10-21T00:28:02.154Z,14.76
2018-10-21T00:28:33.270Z,14.79
2018-10-21T00:29:04.382Z,14.79
2018-10-21T00:29:35.512Z,14.79
2018-10-21T00:30:06.613Z,14.79
2018-10-21T00:30:37.808Z,14.79
2018-10-21T00:31:09.003Z,14.78
2018-10-21T00:31:40.175Z,14.79
2018-10-21T00:32:11.327Z,14.78
2018-10-21T00:32:42.460Z,14.78
2018-10-21T00:33:13.750Z,14.78
2018-10-21T00:33:44.874Z,14.75
2018-10-21T00:34:16.103Z,14.75
2018-10-21T00:34:47.214Z,14.72
2018-10-21T00:35:18.326Z,14.73
2018-10-21T00:35:49.484Z,14.70
2018-10-21T00:36:20.589Z,14.71
2018-10-21T00:36:51.734Z,14.71
2018-10-21T00:37:22.846Z,14.70
2018-10-21T00:37:53.947Z,14.69
2018-10-21T00:38:25.556Z,14.68
2018-10-21T00:38:56.687Z,14.66
2018-10-21T00:39:27.786Z,14.66
2018-10-21T00:39:58.889Z,14.64
2018-10-21T00:40:31.234Z,14.63
2018-10-21T00:41:03.070Z,14.63
2018-10-21T00:41:34.257Z,14.63
2018-10-21T00:42:05.436Z,14.64
2018-10-21T00:42:36.800Z,14.64
2018-10-21T00:43:08.986Z,14.62
2018-10-21T00:43:40.137Z,14.62
2018-10-21T00:44:11.476Z,14.60
2018-10-21T00:44:42.650Z,14.60
2018-10-21T00:45:13.840Z,14.59
2018-10-21T00:45:45.021Z,14.60
2018-10-21T00:46:16.485Z,14.58
2018-10-21T00:46:47.666Z,14.57
2018-10-21T00:47:18.784Z,14.55
2018-10-21T00:47:49.954Z,14.55
2018-10-21T00:48:22.121Z,14.54
2018-10-21T00:48:53.244Z,14.52
2018-10-21T00:49:24.388Z,14.52
2018-10-21T00:49:55.518Z,14.49
2018-10-21T00:50:26.670Z,14.47
2018-10-21T00:50:57.820Z,14.47
2018-10-21T00:51:28.918Z,14.46
2018-10-21T00:52:00.036Z,14.48
2018-10-21T00:52:32.178Z,14.47
2018-10-21T00:53:04.814Z,14.48
2018-10-21T00:53:35.908Z,14.44
2018-10-21T00:54:07.019Z,14.45
2018-10-21T00:54:38.131Z,14.44
2018-10-21T00:55:09.285Z,14.43
2018-10-21T00:55:40.401Z,14.42
2018-10-21T00:56:12.426Z,14.40
2018-10-21T00:56:44.150Z,14.40
2018-10-21T00:57:15.353Z,14.41
2018-10-21T00:57:46.422Z,14.42
2018-10-21T00:58:17.522Z,14.41
2018-10-21T00:58:48.650Z,14.41
2018-10-21T00:59:20.585Z,14.38
2018-10-21T00:59:52.766Z,14.37
2018-10-21T01:00:24.927Z,14.37
2018-10-21T01:00:56.718Z,14.36
2018-10-21T01:01:27.838Z,14.36
2018-10-21T01:01:58.943Z,14.35
2018-10-21T01:02:30.081Z,14.33
2018-10-21T01:03:02.213Z,14.31
2018-10-21T01:03:33.446Z,14.29
2018-10-21T01:04:04.681Z,14.28
2018-10-21T01:04:35.804Z,14.27
2018-10-21T01:05:06.938Z,14.27
2018-10-21T01:05:38.144Z,14.26
2018-10-21T01:06:09.291Z,14.25
2018-10-21T01:06:41.312Z,14.24
2018-10-21T01:07:12.731Z,14.26
2018-10-21T01:07:44.491Z,14.26
2018-10-21T01:08:15.693Z,14.25
2018-10-21T01:08:46.828Z,14.25
2018-10-21T01:09:18.056Z,14.20
2018-10-21T01:09:49.155Z,14.17
2018-10-21T01:10:20.381Z,14.18
2018-10-21T01:10:51.801Z,14.15
2018-10-21T01:11:23.691Z,14.15
2018-10-21T01:11:54.796Z,14.16
2018-10-21T01:12:25.897Z,14.16
2018-10-21T01:12:57.007Z,14.15
2018-10-21T01:13:28.113Z,14.10
2018-10-21T01:13:59.242Z,14.08
2018-10-21T01:14:31.155Z,14.08
2018-10-21T01:15:02.333Z,14.10
2018-10-21T01:15:33.676Z,14.10
2018-10-21T01:16:04.822Z,14.09
2018-10-21T01:16:35.968Z,14.09
2018-10-21T01:17:07.311Z,14.07
2018-10-21T01:17:39.124Z,14.07
2018-10-21T01:18:10.846Z,14.05
2018-10-21T01:18:41.966Z,14.05
2018-10-21T01:19:14.387Z,14.03
2018-10-21T01:19:45.501Z,14.02
2018-10-21T01:20:16.614Z,14.01
2018-10-21T01:20:48.633Z,14.00
2018-10-21T01:21:19.745Z,14.00
2018-10-21T01:21:50.866Z,14.01
2018-10-21T01:22:21.962Z,14.01
2018-10-21T01:22:53.068Z,14.00
2018-10-21T01:23:24.177Z,13.99
2018-10-21T01:23:55.283Z,13.97
2018-10-21T01:24:26.439Z,13.96
2018-10-21T01:24:57.581Z,13.94
2018-10-21T01:25:28.684Z,13.94
2018-10-21T01:25:59.813Z,13.93
2018-10-21T01:26:30.919Z,13.92
2018-10-21T01:27:02.035Z,13.92
2018-10-21T01:27:33.164Z,13.92
2018-10-21T01:28:41.010Z,13.85
2018-10-21T01:29:12.114Z,13.85
2018-10-21T01:29:43.269Z,13.83
2018-10-21T01:30:15.374Z,13.82
2018-10-21T01:30:46.575Z,13.81
2018-10-21T01:31:17.685Z,13.81
2018-10-21T01:31:48.797Z,13.81
2018-10-21T01:32:19.902Z,13.81
2018-10-21T01:32:51.015Z,13.79
2018-10-21T01:33:22.906Z,13.77
2018-10-21T01:33:54.666Z,13.74
2018-10-21T01:34:25.875Z,13.72
2018-10-21T01:34:57.134Z,13.71
2018-10-21T01:36:03.697Z,13.68
2018-10-21T01:36:34.975Z,13.66
2018-10-21T01:37:06.098Z,13.67
2018-10-21T01:37:37.817Z,13.64
2018-10-21T01:38:08.980Z,13.62
2018-10-21T01:38:40.054Z,13.61
2018-10-21T01:39:11.211Z,13.58
2018-10-21T01:39:42.281Z,13.58
2018-10-21T01:40:13.382Z,13.57
2018-10-21T01:40:46.583Z,13.56
2018-10-21T01:41:17.699Z,13.54
2018-10-21T01:41:48.837Z,13.54
2018-10-21T01:42:19.947Z,13.52
2018-10-21T01:42:51.107Z,13.52
2018-10-21T01:43:22.214Z,13.49
2018-10-21T01:43:53.325Z,13.48
2018-10-21T01:44:24.422Z,13.49
2018-10-21T01:44:55.560Z,13.48
2018-10-21T01:45:26.678Z,13.49
2018-10-21T01:45:57.782Z,13.49
2018-10-21T01:46:28.933Z,13.49
2018-10-21T01:47:00.039Z,13.47
2018-10-21T01:47:31.157Z,13.47
2018-10-21T01:48:03.101Z,13.46
2018-10-21T01:48:34.254Z,13.48
2018-10-21T01:49:05.364Z,13.50
2018-10-21T01:49:37.362Z,13.51
2018-10-21T01:50:08.466Z,13.51
2018-10-21T01:50:39.595Z,13.51
2018-10-21T01:51:10.771Z,13.49
2018-10-21T01:51:41.856Z,13.48
2018-10-21T01:52:12.962Z,13.49
2018-10-21T01:52:44.085Z,13.47
2018-10-21T01:53:15.202Z,13.45
2018-10-21T01:53:46.358Z,13.44
2018-10-21T01:54:17.467Z,13.44
2018-10-21T01:54:48.583Z,13.42
2018-10-21T01:55:19.703Z,13.41
2018-10-21T01:55:50.809Z,13.39
2018-10-21T01:56:22.873Z,13.39
2018-10-21T01:56:54.052Z,13.38
2018-10-21T01:57:25.167Z,13.38
2018-10-21T01:57:56.285Z,13.37
2018-10-21T01:58:27.410Z,13.37
2018-10-21T01:58:59.557Z,13.41
2018-10-21T01:59:30.743Z,13.41
2018-10-21T02:00:01.947Z,13.44
2018-10-21T02:00:33.650Z,13.44
2018-10-21T02:01:05.720Z,13.44
2018-10-21T02:01:37.557Z,13.43
2018-10-21T02:02:08.769Z,13.43
2018-10-21T02:02:39.877Z,13.44
2018-10-21T02:03:11.055Z,13.45
2018-10-21T02:03:42.130Z,13.48
2018-10-21T02:04:13.234Z,13.49
2018-10-21T02:04:44.334Z,13.51
2018-10-21T02:05:15.467Z,13.53
2018-10-21T02:05:46.577Z,13.53
2018-10-21T02:06:17.678Z,13.52
2018-10-21T02:06:48.778Z,13.53
2018-10-21T02:07:19.918Z,13.54
2018-10-21T02:07:51.029Z,13.51
2018-10-21T02:08:22.124Z,13.52
2018-10-21T02:08:53.246Z,13.51
2018-10-21T02:09:24.350Z,13.52
2018-10-21T02:09:55.482Z,13.53
2018-10-21T02:10:26.581Z,13.53
2018-10-21T02:10:57.715Z,13.53
2018-10-21T02:11:28.817Z,13.55
2018-10-21T02:11:59.932Z,13.57
2018-10-21T02:12:31.077Z,13.56
2018-10-21T02:13:02.193Z,13.55
2018-10-21T02:13:34.298Z,13.56
2018-10-21T02:14:05.438Z,13.57
2018-10-21T02:14:36.525Z,13.58
2018-10-21T02:15:07.642Z,13.57
2018-10-21T02:15:38.809Z,13.57
2018-10-21T02:16:09.891Z,13.54
2018-10-21T02:16:41.006Z,13.53
2018-10-21T02:17:12.114Z,13.53
2018-10-21T02:17:43.264Z,13.51
2018-10-21T02:18:14.375Z,13.50
2018-10-21T02:18:45.478Z,13.50
2018-10-21T02:19:16.585Z,13.48
2018-10-21T02:19:47.684Z,13.47
2018-10-21T02:20:18.781Z,13.48
2018-10-21T02:20:49.920Z,13.47
2018-10-21T02:21:21.043Z,13.11
2018-10-21T02:21:52.177Z,13.47
2018-10-21T02:22:23.293Z,13.47
2018-10-21T02:22:54.513Z,13.47
2018-10-21T02:23:25.742Z,13.46
2018-10-21T02:23:56.918Z,13.45
2018-10-21T02:24:28.086Z,13.46
2018-10-21T02:24:59.198Z,13.47
2018-10-21T02:25:30.307Z,13.49
2018-10-21T02:26:01.406Z,13.47
2018-10-21T02:26:32.703Z,13.45
2018-10-21T02:27:03.746Z,13.46
2018-10-21T02:27:34.849Z,13.46
2018-10-21T02:28:05.999Z,13.46
2018-10-21T02:28:37.157Z,13.46
2018-10-21T02:29:08.354Z,13.48
2018-10-21T02:29:39.470Z,13.47
2018-10-21T02:30:10.585Z,13.47
2018-10-21T02:30:41.725Z,13.48
2018-10-21T02:31:14.077Z,13.47
2018-10-21T02:31:45.218Z,13.46
2018-10-21T02:32:16.329Z,13.46
2018-10-21T02:32:48.060Z,13.46
2018-10-21T02:33:20.769Z,13.49
2018-10-21T02:33:51.767Z,13.51
2018-10-21T02:34:22.883Z,13.52
2018-10-21T02:34:54.015Z,13.51
2018-10-21T02:35:25.126Z,13.50
2018-10-21T02:35:56.234Z,13.47
2018-10-21T02:36:27.391Z,13.46
2018-10-21T02:36:58.536Z,13.43
2018-10-21T02:37:29.651Z,13.41
2018-10-21T02:38:01.697Z,13.42
2018-10-21T02:38:32.885Z,13.41
2018-10-21T02:39:04.030Z,13.41
2018-10-21T02:39:35.160Z,13.40
2018-10-21T02:40:06.285Z,13.39
2018-10-21T02:40:37.399Z,13.37
2018-10-21T02:41:08.536Z,13.36
2018-10-21T02:41:39.665Z,13.35
2018-10-21T02:42:10.805Z,13.35
2018-10-21T02:42:41.929Z,13.35
2018-10-21T02:43:13.033Z,13.33
2018-10-21T02:43:44.172Z,13.35
2018-10-21T02:44:15.285Z,13.33
2018-10-21T02:44:46.431Z,13.34
2018-10-21T02:45:17.723Z,13.33
2018-10-21T02:45:48.716Z,13.36
2018-10-21T02:46:20.279Z,13.35
2018-10-21T02:46:51.502Z,13.33
2018-10-21T02:47:22.621Z,13.33
2018-10-21T02:47:53.749Z,13.34
2018-10-21T02:48:24.855Z,13.33
2018-10-21T02:48:56.271Z,13.32
2018-10-21T02:49:27.999Z,13.33
2018-10-21T02:49:59.124Z,13.32
2018-10-21T02:50:30.242Z,13.32
2018-10-21T02:51:01.365Z,13.31
2018-10-21T02:51:32.482Z,13.32
2018-10-21T02:52:03.644Z,13.32
2018-10-21T02:52:34.769Z,13.29
2018-10-21T02:53:05.908Z,13.28
2018-10-21T02:53:37.030Z,13.28
2018-10-21T02:54:08.944Z,13.28
2018-10-21T02:54:40.042Z,13.26
2018-10-21T02:55:11.154Z,13.23
2018-10-21T02:55:42.290Z,13.21
2018-10-21T02:56:13.407Z,13.19
2018-10-21T02:56:44.617Z,13.18
2018-10-21T02:57:16.796Z,13.17
2018-10-21T02:57:47.858Z,13.16
2018-10-21T02:58:20.264Z,13.15
2018-10-21T02:58:51.506Z,13.12
2018-10-21T02:59:22.607Z,13.10
2018-10-21T02:59:53.706Z,13.07
2018-10-21T03:00:24.836Z,13.05
2018-10-21T03:00:55.935Z,13.04
2018-10-21T03:01:27.045Z,12.99
2018-10-21T03:01:58.188Z,12.96
2018-10-21T03:02:29.341Z,12.95
2018-10-21T03:03:00.477Z,12.96
2018-10-21T03:03:31.603Z,12.98
2018-10-21T03:04:02.750Z,12.99
2018-10-21T03:04:33.867Z,12.99
2018-10-21T03:05:04.971Z,13.00
2018-10-21T03:05:36.105Z,12.99
2018-10-21T03:06:07.205Z,12.97
2018-10-21T03:06:39.188Z,12.97
2018-10-21T03:07:10.343Z,12.96
2018-10-21T03:07:41.448Z,12.94
2018-10-21T03:08:12.543Z,12.93
2018-10-21T03:08:43.689Z,12.93
2018-10-21T03:09:14.891Z,12.94
2018-10-21T03:09:45.961Z,12.95
2018-10-21T03:10:17.067Z,12.96
2018-10-21T03:10:48.183Z,12.96
2018-10-21T03:11:19.310Z,12.96
2018-10-21T03:11:50.473Z,12.97
2018-10-21T03:12:21.570Z,12.96
2018-10-21T03:12:52.676Z,12.95
2018-10-21T03:13:23.781Z,12.96
2018-10-21T03:13:54.903Z,12.96
2018-10-21T03:14:26.034Z,12.95
2018-10-21T03:14:57.153Z,12.93
2018-10-21T03:15:28.275Z,12.90
2018-10-21T03:15:59.390Z,12.90
2018-10-21T03:16:30.483Z,12.89
2018-10-21T03:17:01.798Z,12.90
2018-10-21T03:17:32.898Z,12.90
2018-10-21T03:18:04.640Z,12.90
2018-10-21T03:18:35.742Z,12.89
2018-10-21T03:19:06.862Z,12.89
2018-10-21T03:19:37.966Z,12.88
2018-10-21T03:20:09.074Z,12.88
2018-10-21T03:20:40.174Z,12.89
2018-10-21T03:21:11.350Z,12.87
2018-10-21T03:21:42.721Z,12.85
2018-10-21T03:22:13.880Z,12.84
2018-10-21T03:22:44.982Z,12.81
2018-10-21T03:23:16.509Z,12.78
2018-10-21T03:23:47.714Z,12.77
2018-10-21T03:24:18.822Z,12.74
2018-10-21T03:24:49.917Z,12.73
2018-10-21T03:28:00.433Z,12.57
2018-10-21T03:28:31.540Z,12.53
2018-10-21T03:29:02.718Z,12.52
2018-10-21T03:29:33.834Z,12.52
2018-10-21T03:30:04.938Z,12.52
2018-10-21T03:30:36.074Z,12.53
2018-10-21T03:31:07.178Z,12.50
2018-10-21T03:31:38.312Z,12.51
2018-10-21T03:32:09.434Z,12.52
2018-10-21T03:32:40.542Z,12.52
2018-10-21T03:33:11.880Z,12.51
2018-10-21T03:33:42.969Z,12.51
2018-10-21T03:34:13.939Z,12.52
2018-10-21T03:34:45.088Z,12.52
2018-10-21T03:35:16.185Z,12.53
2018-10-21T03:35:47.322Z,12.52
2018-10-21T03:36:18.426Z,12.53
2018-10-21T03:36:49.522Z,12.54
2018-10-21T03:37:20.676Z,12.55
2018-10-21T03:37:51.801Z,12.54
2018-10-21T03:38:22.897Z,12.55
2018-10-21T03:38:53.995Z,12.55
2018-10-21T03:39:25.200Z,12.56
2018-10-21T03:39:56.394Z,12.57
2018-10-21T03:40:27.452Z,12.56
2018-10-21T03:40:58.626Z,12.56
2018-10-21T03:41:29.737Z,12.58
2018-10-21T03:42:00.847Z,12.59
2018-10-21T03:42:31.986Z,12.58
2018-10-21T03:43:03.131Z,12.58
2018-10-21T03:43:34.262Z,12.59
2018-10-21T03:44:05.365Z,12.56
2018-10-21T03:44:36.482Z,12.51
2018-10-21T03:45:07.592Z,12.39
2018-10-21T03:45:38.691Z,12.33
2018-10-21T03:46:09.819Z,12.31
2018-10-21T03:46:40.963Z,12.27
2018-10-21T03:47:12.070Z,12.25
2018-10-21T03:47:43.190Z,12.23
2018-10-21T03:48:14.338Z,12.20
2018-10-21T03:48:45.446Z,12.16
2018-10-21T03:49:16.551Z,12.13
2018-10-21T03:49:47.663Z,12.12
2018-10-21T03:50:18.758Z,12.09
2018-10-21T03:50:49.892Z,12.08
2018-10-21T03:51:21.003Z,12.07
2018-10-21T03:51:52.129Z,12.08
2018-10-21T03:52:23.242Z,12.07
2018-10-21T03:52:54.426Z,12.05
2018-10-21T03:53:25.538Z,12.05
2018-10-21T03:53:56.639Z,12.05
2018-10-21T03:54:27.786Z,12.03
2018-10-21T03:54:58.903Z,12.02
2018-10-21T03:55:30.014Z,11.99
2018-10-21T03:56:01.111Z,11.97
2018-10-21T03:56:32.232Z,11.94
2018-10-21T03:57:03.348Z,11.90
2018-10-21T03:57:34.491Z,11.91
2018-10-21T03:58:05.679Z,11.91
2018-10-21T03:58:36.855Z,11.90
2018-10-21T03:59:08.080Z,11.89
2018-10-21T03:59:39.275Z,11.90
2018-10-21T04:00:10.426Z,11.91
2018-10-21T04:00:41.549Z,11.90
2018-10-21T04:01:12.750Z,11.89
2018-10-21T04:01:43.886Z,11.88
2018-10-21T04:02:15.025Z,11.89
2018-10-21T04:02:46.137Z,11.90
2018-10-21T04:03:17.286Z,11.91
2018-10-21T04:03:48.508Z,11.91
2018-10-21T04:04:19.814Z,11.92
2018-10-21T04:04:51.054Z,11.93
2018-10-21T04:05:22.163Z,11.94
2018-10-21T04:05:54.494Z,11.93
2018-10-21T04:06:25.608Z,11.92
2018-10-21T04:06:56.834Z,11.93
2018-10-21T04:07:27.939Z,11.92
2018-10-21T04:07:59.096Z,11.92
2018-10-21T04:08:30.294Z,11.91
2018-10-21T04:09:01.417Z,11.91
2018-10-21T04:09:32.539Z,11.92
2018-10-21T04:10:03.772Z,11.92
2018-10-21T04:10:34.878Z,11.92
2018-10-21T04:11:06.128Z,11.91
2018-10-21T04:11:37.230Z,11.92
2018-10-21T04:12:08.338Z,11.91
2018-10-21T04:12:39.438Z,11.92
2018-10-21T04:13:12.403Z,11.92
2018-10-21T04:13:43.565Z,11.91
2018-10-21T04:14:14.701Z,11.90
2018-10-21T04:14:45.879Z,11.88
2018-10-21T04:15:16.996Z,11.88
2018-10-21T04:15:50.108Z,11.86
2018-10-21T04:16:21.238Z,11.86
2018-10-21T04:16:52.346Z,11.87
2018-10-21T04:17:23.451Z,11.86
2018-10-21T04:17:54.581Z,11.85
2018-10-21T04:18:25.691Z,11.84
2018-10-21T04:18:56.805Z,11.85
2018-10-21T04:19:27.906Z,11.84
2018-10-21T04:19:59.115Z,11.84
2018-10-21T04:20:30.228Z,11.84
2018-10-21T04:21:01.346Z,11.81
2018-10-21T04:21:32.454Z,11.80
2018-10-21T04:22:03.569Z,11.79
2018-10-21T04:22:34.680Z,11.79
2018-10-21T04:23:05.803Z,11.77
2018-10-21T04:23:36.918Z,11.76
2018-10-21T04:24:08.032Z,11.74
2018-10-21T04:24:39.158Z,11.72
2018-10-21T04:25:10.314Z,11.70
2018-10-21T04:25:41.465Z,11.69
2018-10-21T04:26:12.574Z,11.69
2018-10-21T04:26:43.713Z,11.69
2018-10-21T04:27:14.822Z,11.68
2018-10-21T04:27:46.202Z,11.69
2018-10-21T04:28:17.385Z,11.70
2018-10-21T04:28:48.472Z,11.67
2018-10-21T04:29:19.578Z,11.65
2018-10-21T04:29:50.762Z,11.65
2018-10-21T04:30:21.867Z,11.64
2018-10-21T04:30:52.985Z,11.62
2018-10-21T04:31:24.112Z,11.64
2018-10-21T04:31:55.237Z,11.62
2018-10-21T04:32:26.359Z,11.61
2018-10-21T04:32:57.492Z,11.63
2018-10-21T04:33:28.605Z,11.64
2018-10-21T04:33:59.772Z,11.62
2018-10-21T04:34:30.835Z,11.63
2018-10-21T04:35:02.009Z,11.62
2018-10-21T04:35:33.223Z,11.61
2018-10-21T04:36:04.258Z,11.59
2018-10-21T04:36:35.458Z,11.61
2018-10-21T04:37:06.578Z,11.60
2018-10-21T04:37:37.682Z,11.61
2018-10-21T04:38:08.828Z,11.61
2018-10-21T04:38:39.936Z,11.62
2018-10-21T04:39:11.028Z,11.63
2018-10-21T04:39:42.140Z,11.64
2018-10-21T04:40:13.277Z,11.65
2018-10-21T04:40:44.377Z,11.65
2018-10-21T04:41:15.495Z,11.66
2018-10-21T04:41:46.715Z,11.66
2018-10-21T04:42:17.849Z,11.64
2018-10-21T04:42:48.999Z,11.63
2018-10-21T04:43:20.178Z,11.61
2018-10-21T04:43:51.338Z,11.60
2018-10-21T04:44:22.459Z,11.59
2018-10-21T04:44:53.623Z,11.60
2018-10-21T04:45:24.739Z,11.59
2018-10-21T04:45:55.847Z,11.59
2018-10-21T04:46:27.064Z,11.57
2018-10-21T04:46:58.319Z,11.58
2018-10-21T04:47:29.306Z,11.59
2018-10-21T04:48:00.434Z,11.60
2018-10-21T04:48:31.546Z,11.62
2018-10-21T04:49:02.655Z,11.62
2018-10-21T04:49:33.806Z,11.63
2018-10-21T04:50:04.938Z,11.63
2018-10-21T04:50:36.730Z,11.63
2018-10-21T04:51:07.822Z,11.63
2018-10-21T04:51:38.985Z,11.64
2018-10-21T04:52:10.202Z,11.62
2018-10-21T04:52:41.240Z,11.62
2018-10-21T04:53:12.394Z,11.64
2018-10-21T04:53:43.496Z,11.64
2018-10-21T04:54:14.639Z,11.63
2018-10-21T04:54:45.779Z,11.63
2018-10-21T04:55:16.883Z,11.64
2018-10-21T04:55:47.984Z,11.63
2018-10-21T04:56:19.091Z,11.61
2018-10-21T04:56:50.240Z,11.63
2018-10-21T04:57:21.346Z,11.62
2018-10-21T04:57:52.445Z,11.64
2018-10-21T04:58:23.550Z,11.65
2018-10-21T04:58:54.690Z,11.67
2018-10-21T04:59:25.791Z,11.68
2018-10-21T04:59:56.912Z,11.67
2018-10-21T05:00:28.033Z,11.68
2018-10-21T05:00:59.138Z,11.68
2018-10-21T05:01:30.287Z,11.68
2018-10-21T05:02:01.445Z,11.68
2018-10-21T05:02:32.557Z,11.70
2018-10-21T05:03:03.666Z,11.70
2018-10-21T05:03:34.779Z,11.71
2018-10-21T05:04:05.912Z,11.74
2018-10-21T05:04:37.011Z,11.74
2018-10-21T05:05:08.121Z,11.75
2018-10-21T05:05:39.297Z,11.75
2018-10-21T05:06:10.419Z,11.75
2018-10-21T05:06:41.531Z,11.76
2018-10-21T05:07:12.774Z,11.77
2018-10-21T05:07:43.884Z,11.78
2018-10-21T05:08:14.989Z,11.78
2018-10-21T05:08:46.088Z,11.78
2018-10-21T05:09:17.209Z,11.77
2018-10-21T05:09:48.318Z,11.80
2018-10-21T05:10:19.635Z,11.77
2018-10-21T05:10:50.761Z,11.82
2018-10-21T05:11:21.891Z,11.84
2018-10-21T05:11:52.985Z,11.85
2018-10-21T05:12:24.177Z,11.89
2018-10-21T05:12:55.342Z,11.90
2018-10-21T05:13:26.509Z,11.93
2018-10-21T05:13:57.606Z,11.96
2018-10-21T05:14:28.795Z,11.99
2018-10-21T05:14:59.952Z,12.03
2018-10-21T05:15:31.061Z,12.06
2018-10-21T05:16:02.165Z,12.11
2018-10-21T05:16:33.310Z,12.16
2018-10-21T05:17:04.454Z,12.21
2018-10-21T05:17:35.602Z,12.25
2018-10-21T05:18:06.696Z,12.29
2018-10-21T05:18:37.816Z,12.34
2018-10-21T05:19:08.928Z,12.38
2018-10-21T05:19:40.034Z,12.41
2018-10-21T05:20:11.195Z,12.45
2018-10-21T05:20:42.298Z,12.48
2018-10-21T05:21:13.446Z,12.51
2018-10-21T05:21:44.555Z,12.54
2018-10-21T05:22:15.779Z,12.57
2018-10-21T05:22:46.824Z,12.58
2018-10-21T05:23:17.923Z,12.61
2018-10-21T05:23:49.029Z,12.62
2018-10-21T05:24:20.142Z,12.61
2018-10-21T05:24:51.253Z,12.63
2018-10-21T05:25:22.358Z,12.63
2018-10-21T05:25:53.458Z,12.62
2018-10-21T05:26:24.578Z,12.63
2018-10-21T05:26:55.718Z,12.65
2018-10-21T05:27:26.851Z,12.63
2018-10-21T05:27:58.054Z,12.64
2018-10-21T05:28:29.123Z,12.66
2018-10-21T05:29:00.238Z,12.69
2018-10-21T05:29:31.336Z,12.71
2018-10-21T05:30:02.429Z,12.69
2018-10-21T05:30:33.523Z,12.68
2018-10-21T05:31:04.627Z,12.67
2018-10-21T05:31:35.745Z,12.65
2018-10-21T05:32:06.837Z,12.65
2018-10-21T05:32:37.941Z,12.66
2018-10-21T05:33:09.083Z,12.69
2018-10-21T05:33:40.497Z,12.72
2018-10-21T05:34:11.721Z,12.76
2018-10-21T05:34:43.099Z,12.79
2018-10-21T05:35:14.207Z,12.82
2018-10-21T05:35:45.311Z,12.85
2018-10-21T05:36:17.318Z,12.87
2018-10-21T05:36:48.417Z,12.89
2018-10-21T05:37:19.531Z,12.92
2018-10-21T05:37:50.695Z,12.93
2018-10-21T05:38:21.794Z,12.91
2018-10-21T05:38:52.890Z,12.92
2018-10-21T05:39:23.995Z,12.90
2018-10-21T05:39:55.096Z,12.89
2018-10-21T05:40:26.268Z,12.89
2018-10-21T05:40:57.376Z,12.89
2018-10-21T05:41:28.514Z,12.87
2018-10-21T05:41:59.654Z,12.82
2018-10-21T05:42:30.887Z,12.80
2018-10-21T05:43:02.002Z,12.81
2018-10-21T05:43:33.106Z,12.81
2018-10-21T05:44:04.206Z,12.82
2018-10-21T05:44:35.638Z,12.82
2018-10-21T05:45:06.748Z,12.80
2018-10-21T05:45:37.884Z,12.79
2018-10-21T05:46:09.047Z,12.81
2018-10-21T05:46:40.126Z,12.80
2018-10-21T05:47:11.242Z,12.81
2018-10-21T05:47:42.355Z,12.83
2018-10-21T05:48:13.469Z,12.84
2018-10-21T05:48:45.426Z,12.84
2018-10-21T05:49:16.888Z,12.86
2018-10-21T05:49:47.989Z,12.87
2018-10-21T05:50:19.130Z,12.88
2018-10-21T05:50:50.235Z,12.89
2018-10-21T05:51:21.332Z,12.90
2018-10-21T05:51:52.480Z,12.94
2018-10-21T05:52:23.588Z,12.98
2018-10-21T05:52:54.697Z,13.02
2018-10-21T05:53:25.806Z,13.04
2018-10-21T05:53:57.790Z,13.05
2018-10-21T05:54:28.881Z,13.08
2018-10-21T05:55:00.016Z,13.11
2018-10-21T05:55:31.120Z,13.14
2018-10-21T05:56:02.223Z,13.17
2018-10-21T05:56:33.329Z,13.21
2018-10-21T05:57:04.463Z,13.23
2018-10-21T05:57:35.560Z,13.26
2018-10-21T05:58:06.974Z,13.29
2018-10-21T05:58:40.990Z,13.35
2018-10-21T05:59:12.771Z,13.41
2018-10-21T05:59:43.882Z,13.45
2018-10-21T06:00:14.982Z,13.49
2018-10-21T06:00:46.096Z,13.54
2018-10-21T06:01:17.206Z,13.59
2018-10-21T06:01:48.599Z,13.60
2018-10-21T06:02:19.738Z,13.61
2018-10-21T06:02:50.897Z,13.64
2018-10-21T06:03:21.970Z,13.66
2018-10-21T06:03:53.712Z,13.65
2018-10-21T06:04:24.807Z,13.61
2018-10-21T06:04:55.906Z,13.59
2018-10-21T06:05:27.033Z,13.58
2018-10-21T06:05:58.138Z,13.57
2018-10-21T06:06:29.288Z,13.55
2018-10-21T06:07:00.388Z,13.56
2018-10-21T06:07:31.509Z,13.54
2018-10-21T06:08:02.622Z,13.54
2018-10-21T06:08:33.768Z,13.53
2018-10-21T06:09:04.889Z,13.52
2018-10-21T06:09:35.999Z,13.57
2018-10-21T06:10:07.877Z,13.59
2018-10-21T06:10:39.787Z,13.64
2018-10-21T06:11:10.897Z,13.67
2018-10-21T06:11:42.784Z,13.70
2018-10-21T06:12:13.962Z,13.74
2018-10-21T06:12:45.062Z,13.77
2018-10-21T06:13:16.170Z,13.79
2018-10-21T06:13:47.338Z,13.82
2018-10-21T06:14:18.441Z,13.86
2018-10-21T06:14:49.536Z,13.91
2018-10-21T06:15:20.633Z,13.94
2018-10-21T06:15:51.819Z,13.96
2018-10-21T06:16:22.994Z,13.96
2018-10-21T06:16:53.979Z,13.98
2018-10-21T06:17:25.073Z,14.01
2018-10-21T06:17:56.166Z,14.05
2018-10-21T06:18:27.271Z,14.09
2018-10-21T06:18:58.427Z,14.13
2018-10-21T06:19:30.494Z,14.17
2018-10-21T06:20:02.197Z,14.19
2018-10-21T06:20:33.297Z,14.21
2018-10-21T06:21:04.407Z,14.26
2018-10-21T06:21:36.386Z,14.32
2018-10-21T06:22:08.301Z,14.38
2018-10-21T06:22:39.660Z,14.45
2018-10-21T06:23:12.650Z,14.52
2018-10-21T06:23:43.777Z,14.59
2018-10-21T06:24:14.906Z,14.65
2018-10-21T06:24:46.003Z,14.71
2018-10-21T06:25:17.099Z,14.73
2018-10-21T06:25:48.203Z,14.78
2018-10-21T06:26:19.537Z,14.76
2018-10-21T06:26:52.778Z,14.74
2018-10-21T06:27:23.890Z,14.72
2018-10-21T06:27:55.000Z,14.72
2018-10-21T06:28:26.108Z,14.73
2018-10-21T06:28:57.210Z,14.72
2018-10-21T06:29:28.342Z,14.72
2018-10-21T06:29:59.450Z,14.75
2018-10-21T06:30:30.537Z,14.77
2018-10-21T06:31:02.447Z,14.78
2018-10-21T06:31:33.558Z,14.80
2018-10-21T06:32:04.648Z,14.81
2018-10-21T06:32:35.752Z,14.76
2018-10-21T06:33:06.910Z,14.80
2018-10-21T06:33:38.977Z,14.82
2018-10-21T06:34:10.033Z,14.83
2018-10-21T06:34:41.135Z,14.83
2018-10-21T06:35:12.727Z,14.82
2018-10-21T06:35:47.456Z,14.86
2018-10-21T06:36:18.592Z,14.88
2018-10-21T06:36:49.790Z,14.87
2018-10-21T06:37:20.842Z,14.87
2018-10-21T06:37:51.942Z,14.89
2018-10-21T06:38:24.054Z,14.91
2018-10-21T06:38:55.155Z,14.88
2018-10-21T06:39:26.273Z,14.87
2018-10-21T06:39:57.419Z,14.92
2018-10-21T06:40:28.517Z,14.99
2018-10-21T06:40:59.615Z,15.03
2018-10-21T06:41:30.729Z,15.07
2018-10-21T06:42:01.827Z,15.08
2018-10-21T06:42:32.930Z,15.11
2018-10-21T06:43:04.033Z,15.12
2018-10-21T06:43:35.142Z,15.15
2018-10-21T06:44:06.245Z,15.20
2018-10-21T06:44:37.353Z,15.25
2018-10-21T06:45:08.586Z,15.30
2018-10-21T06:45:39.709Z,15.37
2018-10-21T06:46:10.749Z,15.45
2018-10-21T06:46:41.850Z,15.52